• Join FlightAware (Why Join?)
  • Login
  • US Flag 
11:10AM EST


 

Airport Tracker/Info


-or-


 

Live Flight TrackerFlight Track Log ✈ ASQ5810 ✈ 18-May-2013 ✈ KORD - KCRW

Flight Track Log - Related Links

Times and Time Zones

All times are in EDT time to prevent confusion due to time zone crossing. See the ASQ5810 flight status page for this flight to view local times or setup timezone preferences in your user account.

Time Position Orientation Groundspeed Altitude Reporting Facility
EDT Latitude Longitude Course Direction KTS MPH feet Rate Location/Type
02:32PM 41.9167 -87.8833 156° South 191 220 2,600  Level Chicago TRACON
02:33PM 41.8250 -87.8761 177° South 214 246 5,800 1,860 Climbing Chicago Center
02:34PM 41.7586 -87.8497 163° South 255 293 7,600 1,800 Climbing Chicago Center
02:35PM 41.6933 -87.7961 148° Southeast 273 314 9,600 1,980 Climbing Chicago Center
02:36PM 41.6264 -87.7406 148° Southeast 281 323 11,700 1,500 Climbing Chicago Center
02:37PM 41.6886 -87.3427 156° South  Level Estimated
02:37PM 41.5392 -87.6672 148° Southeast 307 353 12,800  Level Chicago Center
02:39PM 41.4578 -87.5997 148° Southeast 339 390 14,000 1,260 Climbing Chicago Center
02:40PM 41.3636 -87.5636 164° South 357 411 15,500 1,200 Climbing Chicago Center
02:41PM 41.2642 -87.5442 172° South 359 413 16,500 1,020 Climbing Chicago Center
02:42PM 41.1628 -87.5244 172° South 367 422 17,600 960 Climbing Chicago Center
02:43PM 41.0600 -87.4958 168° South 376 433 18,600 1,020 Climbing Chicago Center
02:44PM 40.9556 -87.4672 168° South 382 440 19,800 1,200 Climbing Chicago Center
02:45PM 40.8283 -87.4339 169° South 392 451 21,100 1,080 Climbing Chicago Center
02:46PM 40.7211 -87.4053 169° South 395 455 22,100 960 Climbing Chicago Center
02:47PM 40.6136 -87.3772 169° South 396 456 23,100 960 Climbing Chicago Center
02:48PM 40.5056 -87.3483 169° South 398 458 24,200 960 Climbing Chicago Center
02:49PM 40.4075 -87.2933 157° South 403 464 25,200 960 Climbing Chicago Center
02:50PM 40.3161 -87.2086 145° Southeast 399 459 26,200 1,080 Climbing Chicago Center
02:51PM 40.2097 -87.1100 145° Southeast 398 458 27,500 1,080 Climbing Chicago Center
02:52PM 40.1219 -87.0281 144° Southeast 393 452 28,500 960 Climbing Chicago Center
02:53PM 40.0683 -86.9786 145° Southeast 389 448 29,100 1,020 Climbing Indianapolis Center
02:54PM 39.9814 -86.8986 145° Southeast 385 443 30,200 900 Climbing Indianapolis Center
02:55PM 39.8906 -86.8233 148° Southeast 388 447 31,000 360 Climbing Indianapolis Center
02:56PM 39.7958 -86.7450 148° Southeast 404 465 31,000  Level Indianapolis Center
02:57PM 39.6964 -86.6175 135° Southeast 433 498 31,000  Level Indianapolis Center
02:58PM 39.6597 -86.4642 107° East 448 516 31,000  Level Indianapolis Center
02:59PM 39.6231 -86.3133 107° East 451 519 31,000  Level Indianapolis Center
03:00PM 39.5867 -86.1619 107° East 451 519 31,000  Level Indianapolis Center
03:01PM 39.5436 -85.9803 107° East 446 513 31,000  Level Indianapolis Center
03:02PM 39.5058 -85.8278 108° East 448 516 31,000  Level Indianapolis Center
03:03PM 39.4683 -85.6744 108° East 449 517 31,000  Level Indianapolis Center
03:04PM 39.4311 -85.5225 108° East 446 513 31,000  Level Indianapolis Center
03:05PM 39.3925 -85.3708 108° East 446 513 31,000  Level Indianapolis Center
03:06PM 39.3542 -85.2181 108° East 447 514 31,000  Level Indianapolis Center
03:07PM 39.3164 -85.0669 108° East 446 513 31,000  Level Indianapolis Center
03:08PM 39.2719 -84.8842 107° East 446 513 31,000  Level Indianapolis Center
03:09PM 39.2333 -84.7400 109° East 447 514 31,000  Level Indianapolis Center
03:10PM 39.1939 -84.5869 108° East 447 514 31,000  Level Indianapolis Center
03:11PM 39.1561 -84.4361 108° East 442 509 31,000  Level Indianapolis Center
03:12PM 39.1156 -84.2828 109° East 447 514 31,000  Level Indianapolis Center
03:13PM 39.0761 -84.1300 108° East 447 514 31,000  Level Indianapolis Center
03:14PM 39.0292 -83.9503 109° East 451 519 31,000  Level Indianapolis Center
03:15PM 38.9878 -83.7961 109° East 452 520 31,000 -420 Level Indianapolis Center
03:16PM 38.9467 -83.6431 109° East 451 519 30,200 -1,080 Descending Indianapolis Center
03:17PM 38.9056 -83.4881 109° East 455 524 28,800 -1,380 Descending Indianapolis Center
03:18PM 38.8639 -83.3353 109° East 452 520 27,400 -1,440 Descending Indianapolis Center
03:19PM 38.8219 -83.1789 109° East 459 528 25,900 -1,680 Descending Indianapolis Center
03:20PM 38.7789 -83.0222 109° East 453 521 24,000 -1,860 Descending Indianapolis Center
03:21PM 38.7397 -82.8817 110° East 424 488 22,100 -1,920 Descending Indianapolis Center
03:22PM 38.7025 -82.7467 109° East 406 467 20,100 -1,920 Descending Indianapolis Center
03:23PM 38.6644 -82.6086 109° East 409 471 18,200 -2,040 Descending Indianapolis Center
03:24PM 38.6189 -82.4453 110° East 407 468 15,900 -2,040 Descending Indianapolis Center
03:25PM 38.5822 -82.3181 110° East 388 447 14,000 -1,920 Descending Indianapolis Center
03:26PM 38.5528 -82.1939 107° East 365 420 12,000 -1,500 Descending Indianapolis Center
03:27PM 38.5258 -82.0778 106° East 346 398 11,000 -780 Descending Indianapolis Center
03:29PM 38.5189 -81.9639 94° East 327 376 10,400 -1,020 Descending Indianapolis Center
03:30PM 38.5322 -81.8625 80° East 295 339 9,000 -1,500 Descending Indianapolis Center
03:31PM 38.5397 -81.7636 84° East 285 328 7,400 -1,800 Descending Indianapolis Center
03:32PM 38.5025 -81.6667 116° Southeast 258 297 5,400 -1,980 Descending Indianapolis Center
03:33PM 38.4703 -81.5864 117° Southeast 257 296 3,400 -1,560 Descending Indianapolis Center
03:34PM 38.4328 -81.5400 136° Southeast 208 239 2,300 -840 Descending Indianapolis Center
03:35PM 38.3997 -81.5628 208° Southwest 167 192 1,700 -480 Descending Indianapolis Center
03:36PM 38.3747 -81.6000 229° Southwest 161 185 1,400 -300 Descending Indianapolis Center